sensor_id;sensor_type;location;lat;lon;timestamp;P1;durP1;ratioP1;P2;durP2;ratioP2
18449;SDS011;9354;50.194;7.690;2022-12-11T00:01:45;51.67;;;19.63;;
18449;SDS011;9354;50.194;7.690;2022-12-11T00:04:13;44.43;;;18.57;;
18449;SDS011;9354;50.194;7.690;2022-12-11T00:06:40;45.40;;;18.07;;
18449;SDS011;9354;50.194;7.690;2022-12-11T00:09:08;43.67;;;17.93;;
18449;SDS011;9354;50.194;7.690;2022-12-11T00:11:36;50.87;;;17.17;;
18449;SDS011;9354;50.194;7.690;2022-12-11T00:14:03;47.90;;;17.63;;
18449;SDS011;9354;50.194;7.690;2022-12-11T00:16:31;46.50;;;17.57;;
18449;SDS011;9354;50.194;7.690;2022-12-11T00:19:00;44.33;;;17.57;;
18449;SDS011;9354;50.194;7.690;2022-12-11T00:21:27;46.27;;;17.97;;
18449;SDS011;9354;50.194;7.690;2022-12-11T00:23:54;50.17;;;17.73;;
18449;SDS011;9354;50.194;7.690;2022-12-11T00:26:22;45.67;;;16.53;;
18449;SDS011;9354;50.194;7.690;2022-12-11T00:28:51;48.00;;;18.30;;
18449;SDS011;9354;50.194;7.690;2022-12-11T00:31:20;50.77;;;18.93;;
18449;SDS011;9354;50.194;7.690;2022-12-11T00:33:49;45.40;;;17.90;;
18449;SDS011;9354;50.194;7.690;2022-12-11T00:36:18;48.30;;;17.63;;
18449;SDS011;9354;50.194;7.690;2022-12-11T00:38:47;45.93;;;17.17;;
18449;SDS011;9354;50.194;7.690;2022-12-11T00:41:15;45.10;;;17.87;;
18449;SDS011;9354;50.194;7.690;2022-12-11T00:43:43;48.27;;;17.63;;
18449;SDS011;9354;50.194;7.690;2022-12-11T00:46:11;47.23;;;18.10;;
18449;SDS011;9354;50.194;7.690;2022-12-11T00:48:39;47.33;;;19.83;;
18449;SDS011;9354;50.194;7.690;2022-12-11T00:51:06;54.07;;;20.10;;
18449;SDS011;9354;50.194;7.690;2022-12-11T00:53:35;50.07;;;19.40;;
18449;SDS011;9354;50.194;7.690;2022-12-11T00:56:08;48.93;;;18.50;;
18449;SDS011;9354;50.194;7.690;2022-12-11T00:58:37;43.67;;;16.20;;
18449;SDS011;9354;50.194;7.690;2022-12-11T01:01:05;44.37;;;16.50;;
18449;SDS011;9354;50.194;7.690;2022-12-11T01:03:34;40.73;;;17.37;;
18449;SDS011;9354;50.194;7.690;2022-12-11T01:06:02;47.37;;;17.47;;
18449;SDS011;9354;50.194;7.690;2022-12-11T01:08:30;50.07;;;18.93;;
18449;SDS011;9354;50.194;7.690;2022-12-11T01:11:03;50.63;;;18.40;;
18449;SDS011;9354;50.194;7.690;2022-12-11T01:13:30;46.47;;;17.83;;
18449;SDS011;9354;50.194;7.690;2022-12-11T01:15:58;47.50;;;17.77;;
18449;SDS011;9354;50.194;7.690;2022-12-11T01:18:26;46.67;;;17.20;;
18449;SDS011;9354;50.194;7.690;2022-12-11T01:20:53;51.10;;;18.47;;
18449;SDS011;9354;50.194;7.690;2022-12-11T01:23:21;48.80;;;19.67;;
18449;SDS011;9354;50.194;7.690;2022-12-11T01:25:48;50.03;;;19.00;;
18449;SDS011;9354;50.194;7.690;2022-12-11T01:28:17;44.67;;;17.70;;
18449;SDS011;9354;50.194;7.690;2022-12-11T01:30:44;50.93;;;17.90;;
18449;SDS011;9354;50.194;7.690;2022-12-11T01:33:12;49.40;;;18.90;;
18449;SDS011;9354;50.194;7.690;2022-12-11T01:35:39;55.90;;;20.13;;
18449;SDS011;9354;50.194;7.690;2022-12-11T01:38:07;44.67;;;18.53;;
18449;SDS011;9354;50.194;7.690;2022-12-11T01:40:35;47.43;;;17.30;;
18449;SDS011;9354;50.194;7.690;2022-12-11T01:43:03;48.50;;;18.97;;
18449;SDS011;9354;50.194;7.690;2022-12-11T01:45:33;47.57;;;18.07;;
18449;SDS011;9354;50.194;7.690;2022-12-11T01:48:05;51.70;;;18.50;;
18449;SDS011;9354;50.194;7.690;2022-12-11T01:50:37;44.63;;;18.03;;
18449;SDS011;9354;50.194;7.690;2022-12-11T01:53:09;50.73;;;18.37;;
18449;SDS011;9354;50.194;7.690;2022-12-11T01:55:40;50.43;;;18.27;;
18449;SDS011;9354;50.194;7.690;2022-12-11T01:58:08;51.30;;;18.70;;
18449;SDS011;9354;50.194;7.690;2022-12-11T02:00:38;46.00;;;18.67;;
18449;SDS011;9354;50.194;7.690;2022-12-11T02:03:06;46.57;;;18.67;;
18449;SDS011;9354;50.194;7.690;2022-12-11T02:05:34;45.30;;;17.40;;
18449;SDS011;9354;50.194;7.690;2022-12-11T02:08:02;45.00;;;17.03;;
18449;SDS011;9354;50.194;7.690;2022-12-11T02:10:34;50.17;;;17.80;;
18449;SDS011;9354;50.194;7.690;2022-12-11T02:13:22;47.67;;;17.93;;
18449;SDS011;9354;50.194;7.690;2022-12-11T02:15:59;45.67;;;16.13;;
18449;SDS011;9354;50.194;7.690;2022-12-11T02:18:33;44.90;;;17.13;;
18449;SDS011;9354;50.194;7.690;2022-12-11T02:21:06;44.20;;;17.87;;
18449;SDS011;9354;50.194;7.690;2022-12-11T02:26:35;51.90;;;17.43;;
18449;SDS011;9354;50.194;7.690;2022-12-11T02:29:26;49.60;;;17.43;;
18449;SDS011;9354;50.194;7.690;2022-12-11T02:31:59;44.83;;;16.90;;
18449;SDS011;9354;50.194;7.690;2022-12-11T02:34:31;47.33;;;17.40;;
18449;SDS011;9354;50.194;7.690;2022-12-11T02:37:03;48.87;;;18.10;;
18449;SDS011;9354;50.194;7.690;2022-12-11T02:39:34;48.07;;;17.40;;
18449;SDS011;9354;50.194;7.690;2022-12-11T02:42:04;41.83;;;16.07;;
18449;SDS011;9354;50.194;7.690;2022-12-11T02:44:35;42.57;;;15.97;;
18449;SDS011;9354;50.194;7.690;2022-12-11T02:47:05;43.33;;;15.60;;
18449;SDS011;9354;50.194;7.690;2022-12-11T02:49:36;45.00;;;15.90;;
18449;SDS011;9354;50.194;7.690;2022-12-11T02:52:05;41.73;;;17.73;;
18449;SDS011;9354;50.194;7.690;2022-12-11T02:54:36;39.73;;;17.00;;
18449;SDS011;9354;50.194;7.690;2022-12-11T02:57:07;41.57;;;15.53;;
18449;SDS011;9354;50.194;7.690;2022-12-11T02:59:41;48.17;;;17.00;;
18449;SDS011;9354;50.194;7.690;2022-12-11T03:02:11;45.43;;;18.07;;
18449;SDS011;9354;50.194;7.690;2022-12-11T03:04:39;51.47;;;18.57;;
18449;SDS011;9354;50.194;7.690;2022-12-11T03:07:09;51.23;;;18.50;;
18449;SDS011;9354;50.194;7.690;2022-12-11T03:09:40;50.03;;;18.80;;
18449;SDS011;9354;50.194;7.690;2022-12-11T03:12:11;51.53;;;18.57;;
18449;SDS011;9354;50.194;7.690;2022-12-11T03:14:44;47.90;;;17.77;;
18449;SDS011;9354;50.194;7.690;2022-12-11T03:17:13;54.00;;;18.37;;
18449;SDS011;9354;50.194;7.690;2022-12-11T03:19:45;55.63;;;18.90;;
18449;SDS011;9354;50.194;7.690;2022-12-11T03:22:19;45.90;;;19.00;;
18449;SDS011;9354;50.194;7.690;2022-12-11T03:24:52;52.67;;;18.27;;
18449;SDS011;9354;50.194;7.690;2022-12-11T03:27:26;47.83;;;16.53;;
18449;SDS011;9354;50.194;7.690;2022-12-11T03:29:59;50.60;;;17.07;;
18449;SDS011;9354;50.194;7.690;2022-12-11T03:32:34;49.43;;;18.00;;
18449;SDS011;9354;50.194;7.690;2022-12-11T03:35:06;45.63;;;16.60;;
18449;SDS011;9354;50.194;7.690;2022-12-11T03:37:38;49.77;;;18.63;;
18449;SDS011;9354;50.194;7.690;2022-12-11T03:40:09;48.00;;;17.77;;
18449;SDS011;9354;50.194;7.690;2022-12-11T03:42:40;47.93;;;17.77;;
18449;SDS011;9354;50.194;7.690;2022-12-11T03:45:12;50.23;;;18.60;;
18449;SDS011;9354;50.194;7.690;2022-12-11T03:47:41;49.57;;;18.07;;
18449;SDS011;9354;50.194;7.690;2022-12-11T03:50:11;50.07;;;18.27;;
18449;SDS011;9354;50.194;7.690;2022-12-11T03:52:42;49.07;;;17.50;;
18449;SDS011;9354;50.194;7.690;2022-12-11T03:55:11;47.77;;;17.63;;
18449;SDS011;9354;50.194;7.690;2022-12-11T03:57:43;46.63;;;17.43;;
18449;SDS011;9354;50.194;7.690;2022-12-11T04:00:13;50.87;;;18.00;;
18449;SDS011;9354;50.194;7.690;2022-12-11T04:02:42;51.83;;;18.63;;
18449;SDS011;9354;50.194;7.690;2022-12-11T04:05:30;47.67;;;17.27;;
18449;SDS011;9354;50.194;7.690;2022-12-11T04:07:57;48.33;;;18.07;;
18449;SDS011;9354;50.194;7.690;2022-12-11T04:10:25;50.40;;;18.17;;
18449;SDS011;9354;50.194;7.690;2022-12-11T04:12:52;46.93;;;18.03;;
18449;SDS011;9354;50.194;7.690;2022-12-11T04:15:21;55.57;;;19.67;;
18449;SDS011;9354;50.194;7.690;2022-12-11T04:17:47;54.47;;;18.87;;
18449;SDS011;9354;50.194;7.690;2022-12-11T04:20:32;45.17;;;17.03;;
18449;SDS011;9354;50.194;7.690;2022-12-11T04:23:17;49.90;;;18.50;;
18449;SDS011;9354;50.194;7.690;2022-12-11T04:26:03;47.93;;;18.57;;
18449;SDS011;9354;50.194;7.690;2022-12-11T04:28:31;53.70;;;19.97;;
18449;SDS011;9354;50.194;7.690;2022-12-11T04:31:00;57.17;;;19.20;;
18449;SDS011;9354;50.194;7.690;2022-12-11T04:33:28;48.77;;;19.87;;
18449;SDS011;9354;50.194;7.690;2022-12-11T04:35:56;48.47;;;18.73;;
18449;SDS011;9354;50.194;7.690;2022-12-11T04:38:24;51.40;;;18.67;;
18449;SDS011;9354;50.194;7.690;2022-12-11T04:40:56;53.57;;;20.37;;
18449;SDS011;9354;50.194;7.690;2022-12-11T04:43:24;55.57;;;18.80;;
18449;SDS011;9354;50.194;7.690;2022-12-11T04:45:59;52.13;;;19.77;;
18449;SDS011;9354;50.194;7.690;2022-12-11T04:48:28;57.13;;;20.20;;
18449;SDS011;9354;50.194;7.690;2022-12-11T04:50:55;50.40;;;20.23;;
18449;SDS011;9354;50.194;7.690;2022-12-11T04:53:23;51.47;;;19.30;;
18449;SDS011;9354;50.194;7.690;2022-12-11T04:55:51;57.63;;;20.77;;
18449;SDS011;9354;50.194;7.690;2022-12-11T04:58:18;58.57;;;21.03;;
18449;SDS011;9354;50.194;7.690;2022-12-11T05:00:46;55.33;;;18.87;;
18449;SDS011;9354;50.194;7.690;2022-12-11T05:03:14;54.03;;;18.97;;
18449;SDS011;9354;50.194;7.690;2022-12-11T05:05:46;53.77;;;21.43;;
18449;SDS011;9354;50.194;7.690;2022-12-11T05:08:15;54.30;;;20.80;;
18449;SDS011;9354;50.194;7.690;2022-12-11T05:10:42;57.17;;;21.27;;
18449;SDS011;9354;50.194;7.690;2022-12-11T05:13:10;59.37;;;20.47;;
18449;SDS011;9354;50.194;7.690;2022-12-11T05:15:37;56.07;;;20.27;;
18449;SDS011;9354;50.194;7.690;2022-12-11T05:18:06;51.80;;;20.27;;
18449;SDS011;9354;50.194;7.690;2022-12-11T05:20:34;57.97;;;21.93;;
18449;SDS011;9354;50.194;7.690;2022-12-11T05:23:02;61.47;;;20.90;;
18449;SDS011;9354;50.194;7.690;2022-12-11T05:25:29;50.17;;;18.30;;
18449;SDS011;9354;50.194;7.690;2022-12-11T05:27:57;52.83;;;19.23;;
18449;SDS011;9354;50.194;7.690;2022-12-11T05:30:24;53.40;;;19.57;;
18449;SDS011;9354;50.194;7.690;2022-12-11T05:32:52;54.00;;;20.63;;
18449;SDS011;9354;50.194;7.690;2022-12-11T05:35:19;45.87;;;19.00;;
18449;SDS011;9354;50.194;7.690;2022-12-11T05:37:48;59.60;;;21.13;;
18449;SDS011;9354;50.194;7.690;2022-12-11T05:40:15;59.47;;;20.07;;
18449;SDS011;9354;50.194;7.690;2022-12-11T05:42:43;53.33;;;20.00;;
18449;SDS011;9354;50.194;7.690;2022-12-11T05:45:10;51.33;;;19.33;;
18449;SDS011;9354;50.194;7.690;2022-12-11T05:47:37;48.27;;;19.20;;
18449;SDS011;9354;50.194;7.690;2022-12-11T05:50:05;51.00;;;20.03;;
18449;SDS011;9354;50.194;7.690;2022-12-11T05:52:33;55.37;;;20.23;;
18449;SDS011;9354;50.194;7.690;2022-12-11T05:55:02;48.37;;;18.13;;
18449;SDS011;9354;50.194;7.690;2022-12-11T05:57:30;50.27;;;18.63;;
18449;SDS011;9354;50.194;7.690;2022-12-11T05:59:57;55.67;;;18.70;;
18449;SDS011;9354;50.194;7.690;2022-12-11T06:02:24;46.50;;;18.53;;
18449;SDS011;9354;50.194;7.690;2022-12-11T06:04:52;43.90;;;18.20;;
18449;SDS011;9354;50.194;7.690;2022-12-11T06:07:20;48.70;;;17.40;;
18449;SDS011;9354;50.194;7.690;2022-12-11T06:09:47;45.60;;;18.27;;
18449;SDS011;9354;50.194;7.690;2022-12-11T06:12:16;44.87;;;16.40;;
18449;SDS011;9354;50.194;7.690;2022-12-11T06:14:43;57.60;;;19.00;;
18449;SDS011;9354;50.194;7.690;2022-12-11T06:17:10;48.43;;;17.97;;
18449;SDS011;9354;50.194;7.690;2022-12-11T06:19:38;49.17;;;20.17;;
18449;SDS011;9354;50.194;7.690;2022-12-11T06:22:05;48.10;;;18.93;;
18449;SDS011;9354;50.194;7.690;2022-12-11T06:24:33;60.87;;;20.70;;
18449;SDS011;9354;50.194;7.690;2022-12-11T06:27:00;51.40;;;19.17;;
18449;SDS011;9354;50.194;7.690;2022-12-11T06:29:29;52.30;;;20.07;;
18449;SDS011;9354;50.194;7.690;2022-12-11T06:31:56;45.63;;;17.70;;
18449;SDS011;9354;50.194;7.690;2022-12-11T06:34:24;47.97;;;19.00;;
18449;SDS011;9354;50.194;7.690;2022-12-11T06:36:51;51.50;;;19.57;;
18449;SDS011;9354;50.194;7.690;2022-12-11T06:39:19;53.07;;;19.40;;
18449;SDS011;9354;50.194;7.690;2022-12-11T06:41:46;51.83;;;19.60;;
18449;SDS011;9354;50.194;7.690;2022-12-11T06:44:14;58.30;;;19.33;;
18449;SDS011;9354;50.194;7.690;2022-12-11T06:46:42;48.17;;;18.20;;
18449;SDS011;9354;50.194;7.690;2022-12-11T06:49:10;45.70;;;18.87;;
18449;SDS011;9354;50.194;7.690;2022-12-11T06:51:37;53.03;;;19.33;;
18449;SDS011;9354;50.194;7.690;2022-12-11T06:54:05;53.10;;;19.50;;
18449;SDS011;9354;50.194;7.690;2022-12-11T06:56:33;46.43;;;18.13;;
18449;SDS011;9354;50.194;7.690;2022-12-11T06:59:00;51.90;;;20.20;;
18449;SDS011;9354;50.194;7.690;2022-12-11T07:01:28;48.73;;;19.40;;
18449;SDS011;9354;50.194;7.690;2022-12-11T07:03:57;48.47;;;20.00;;
18449;SDS011;9354;50.194;7.690;2022-12-11T07:06:26;51.27;;;18.47;;
18449;SDS011;9354;50.194;7.690;2022-12-11T07:08:54;51.50;;;21.07;;
18449;SDS011;9354;50.194;7.690;2022-12-11T07:11:22;55.53;;;22.20;;
18449;SDS011;9354;50.194;7.690;2022-12-11T07:13:49;58.17;;;22.83;;
18449;SDS011;9354;50.194;7.690;2022-12-11T07:16:17;46.60;;;18.20;;
18449;SDS011;9354;50.194;7.690;2022-12-11T07:18:45;48.73;;;17.10;;
18449;SDS011;9354;50.194;7.690;2022-12-11T07:21:16;49.63;;;18.67;;
18449;SDS011;9354;50.194;7.690;2022-12-11T07:23:45;49.80;;;19.50;;
18449;SDS011;9354;50.194;7.690;2022-12-11T07:26:13;46.33;;;17.33;;
18449;SDS011;9354;50.194;7.690;2022-12-11T07:28:42;52.97;;;19.33;;
18449;SDS011;9354;50.194;7.690;2022-12-11T07:31:10;44.23;;;18.37;;
18449;SDS011;9354;50.194;7.690;2022-12-11T07:33:38;52.13;;;17.67;;
18449;SDS011;9354;50.194;7.690;2022-12-11T07:36:07;51.63;;;17.53;;
18449;SDS011;9354;50.194;7.690;2022-12-11T07:38:37;49.00;;;19.07;;
18449;SDS011;9354;50.194;7.690;2022-12-11T07:41:05;49.37;;;18.47;;
18449;SDS011;9354;50.194;7.690;2022-12-11T07:43:34;50.67;;;18.33;;
18449;SDS011;9354;50.194;7.690;2022-12-11T07:46:03;45.70;;;17.90;;
18449;SDS011;9354;50.194;7.690;2022-12-11T07:48:33;47.63;;;18.40;;
18449;SDS011;9354;50.194;7.690;2022-12-11T07:51:07;60.87;;;19.07;;
18449;SDS011;9354;50.194;7.690;2022-12-11T07:53:36;48.93;;;18.13;;
18449;SDS011;9354;50.194;7.690;2022-12-11T07:56:05;49.07;;;18.33;;
18449;SDS011;9354;50.194;7.690;2022-12-11T07:58:33;51.93;;;19.03;;
18449;SDS011;9354;50.194;7.690;2022-12-11T08:01:01;49.27;;;18.73;;
18449;SDS011;9354;50.194;7.690;2022-12-11T08:03:28;50.10;;;18.20;;
18449;SDS011;9354;50.194;7.690;2022-12-11T08:05:56;52.20;;;18.70;;
18449;SDS011;9354;50.194;7.690;2022-12-11T08:08:23;50.60;;;18.17;;
18449;SDS011;9354;50.194;7.690;2022-12-11T08:10:52;45.63;;;18.37;;
18449;SDS011;9354;50.194;7.690;2022-12-11T08:13:19;48.93;;;18.40;;
18449;SDS011;9354;50.194;7.690;2022-12-11T08:15:47;53.10;;;19.17;;
18449;SDS011;9354;50.194;7.690;2022-12-11T08:18:14;53.10;;;20.17;;
18449;SDS011;9354;50.194;7.690;2022-12-11T08:20:41;51.20;;;18.40;;
18449;SDS011;9354;50.194;7.690;2022-12-11T08:23:09;51.87;;;18.93;;
18449;SDS011;9354;50.194;7.690;2022-12-11T08:25:36;55.80;;;19.27;;
18449;SDS011;9354;50.194;7.690;2022-12-11T08:28:05;53.37;;;18.27;;
18449;SDS011;9354;50.194;7.690;2022-12-11T08:30:32;50.80;;;19.33;;
18449;SDS011;9354;50.194;7.690;2022-12-11T08:33:01;56.07;;;18.97;;
18449;SDS011;9354;50.194;7.690;2022-12-11T08:35:28;53.17;;;18.83;;
18449;SDS011;9354;50.194;7.690;2022-12-11T08:37:55;45.03;;;18.03;;
18449;SDS011;9354;50.194;7.690;2022-12-11T08:40:23;51.07;;;18.73;;
18449;SDS011;9354;50.194;7.690;2022-12-11T08:42:50;61.00;;;19.90;;
18449;SDS011;9354;50.194;7.690;2022-12-11T08:45:19;51.97;;;17.57;;
18449;SDS011;9354;50.194;7.690;2022-12-11T08:47:46;52.27;;;18.90;;
18449;SDS011;9354;50.194;7.690;2022-12-11T08:50:14;46.97;;;18.83;;
18449;SDS011;9354;50.194;7.690;2022-12-11T08:52:41;54.17;;;18.83;;
18449;SDS011;9354;50.194;7.690;2022-12-11T08:55:08;52.87;;;19.77;;
18449;SDS011;9354;50.194;7.690;2022-12-11T08:57:36;58.97;;;20.30;;
18449;SDS011;9354;50.194;7.690;2022-12-11T09:00:04;59.03;;;20.53;;
18449;SDS011;9354;50.194;7.690;2022-12-11T09:02:35;56.27;;;19.90;;
18449;SDS011;9354;50.194;7.690;2022-12-11T09:05:03;49.83;;;19.50;;
18449;SDS011;9354;50.194;7.690;2022-12-11T09:07:34;54.17;;;20.60;;
18449;SDS011;9354;50.194;7.690;2022-12-11T09:10:02;49.13;;;19.30;;
18449;SDS011;9354;50.194;7.690;2022-12-11T09:12:31;49.97;;;20.03;;
18449;SDS011;9354;50.194;7.690;2022-12-11T09:14:59;54.90;;;19.33;;
18449;SDS011;9354;50.194;7.690;2022-12-11T09:17:26;49.73;;;19.23;;
18449;SDS011;9354;50.194;7.690;2022-12-11T09:19:55;53.40;;;19.47;;
18449;SDS011;9354;50.194;7.690;2022-12-11T09:22:22;53.57;;;19.87;;
18449;SDS011;9354;50.194;7.690;2022-12-11T09:24:50;48.80;;;18.27;;
18449;SDS011;9354;50.194;7.690;2022-12-11T09:27:18;50.27;;;18.73;;
18449;SDS011;9354;50.194;7.690;2022-12-11T09:29:45;48.67;;;18.77;;
18449;SDS011;9354;50.194;7.690;2022-12-11T09:32:14;55.70;;;18.90;;
18449;SDS011;9354;50.194;7.690;2022-12-11T09:34:41;42.53;;;16.57;;
18449;SDS011;9354;50.194;7.690;2022-12-11T09:37:10;44.00;;;17.57;;
18449;SDS011;9354;50.194;7.690;2022-12-11T09:39:37;50.80;;;17.73;;
18449;SDS011;9354;50.194;7.690;2022-12-11T09:42:06;48.67;;;17.73;;
18449;SDS011;9354;50.194;7.690;2022-12-11T09:44:40;40.40;;;16.60;;
18449;SDS011;9354;50.194;7.690;2022-12-11T09:47:20;47.90;;;17.70;;
18449;SDS011;9354;50.194;7.690;2022-12-11T09:49:53;47.27;;;18.00;;
18449;SDS011;9354;50.194;7.690;2022-12-11T09:52:27;48.60;;;17.90;;
18449;SDS011;9354;50.194;7.690;2022-12-11T09:55:01;44.80;;;17.23;;
18449;SDS011;9354;50.194;7.690;2022-12-11T09:57:38;45.33;;;16.20;;
18449;SDS011;9354;50.194;7.690;2022-12-11T10:00:18;43.97;;;17.10;;
18449;SDS011;9354;50.194;7.690;2022-12-11T10:05:50;42.03;;;15.73;;
18449;SDS011;9354;50.194;7.690;2022-12-11T10:08:27;44.53;;;15.93;;
18449;SDS011;9354;50.194;7.690;2022-12-11T10:11:03;40.77;;;15.03;;
18449;SDS011;9354;50.194;7.690;2022-12-11T10:13:42;44.13;;;14.77;;
18449;SDS011;9354;50.194;7.690;2022-12-11T10:16:17;50.93;;;18.30;;
18449;SDS011;9354;50.194;7.690;2022-12-11T10:18:52;78.07;;;22.97;;
18449;SDS011;9354;50.194;7.690;2022-12-11T10:21:20;58.20;;;20.03;;
18449;SDS011;9354;50.194;7.690;2022-12-11T10:23:51;47.47;;;17.87;;
18449;SDS011;9354;50.194;7.690;2022-12-11T10:26:22;45.87;;;16.90;;
18449;SDS011;9354;50.194;7.690;2022-12-11T10:28:50;63.43;;;21.33;;
18449;SDS011;9354;50.194;7.690;2022-12-11T10:31:18;73.13;;;23.87;;
18449;SDS011;9354;50.194;7.690;2022-12-11T10:33:53;49.13;;;18.97;;
18449;SDS011;9354;50.194;7.690;2022-12-11T10:36:25;39.47;;;16.13;;
18449;SDS011;9354;50.194;7.690;2022-12-11T10:38:56;39.83;;;14.33;;
18449;SDS011;9354;50.194;7.690;2022-12-11T10:41:29;42.97;;;16.07;;
18449;SDS011;9354;50.194;7.690;2022-12-11T10:44:13;40.10;;;15.80;;
18449;SDS011;9354;50.194;7.690;2022-12-11T10:46:42;43.77;;;15.13;;
18449;SDS011;9354;50.194;7.690;2022-12-11T10:49:19;44.20;;;15.40;;
18449;SDS011;9354;50.194;7.690;2022-12-11T10:51:48;38.80;;;15.17;;
18449;SDS011;9354;50.194;7.690;2022-12-11T10:54:24;41.17;;;14.00;;
18449;SDS011;9354;50.194;7.690;2022-12-11T10:56:55;41.00;;;16.20;;
18449;SDS011;9354;50.194;7.690;2022-12-11T10:59:25;39.53;;;16.27;;
18449;SDS011;9354;50.194;7.690;2022-12-11T11:01:58;39.57;;;14.90;;
18449;SDS011;9354;50.194;7.690;2022-12-11T11:04:26;39.57;;;15.43;;
18449;SDS011;9354;50.194;7.690;2022-12-11T11:07:00;44.23;;;15.67;;
18449;SDS011;9354;50.194;7.690;2022-12-11T11:09:30;42.73;;;15.43;;
18449;SDS011;9354;50.194;7.690;2022-12-11T11:12:01;39.57;;;15.57;;
18449;SDS011;9354;50.194;7.690;2022-12-11T11:14:28;42.70;;;15.67;;
18449;SDS011;9354;50.194;7.690;2022-12-11T11:16:56;40.60;;;15.27;;
18449;SDS011;9354;50.194;7.690;2022-12-11T11:19:28;42.77;;;15.30;;
18449;SDS011;9354;50.194;7.690;2022-12-11T11:21:58;42.10;;;16.37;;
18449;SDS011;9354;50.194;7.690;2022-12-11T11:24:31;37.90;;;14.50;;
18449;SDS011;9354;50.194;7.690;2022-12-11T11:27:10;42.53;;;14.90;;
18449;SDS011;9354;50.194;7.690;2022-12-11T11:29:38;38.77;;;14.43;;
18449;SDS011;9354;50.194;7.690;2022-12-11T11:32:13;44.73;;;14.90;;
18449;SDS011;9354;50.194;7.690;2022-12-11T11:34:44;40.37;;;15.07;;
18449;SDS011;9354;50.194;7.690;2022-12-11T11:37:22;46.43;;;15.23;;
18449;SDS011;9354;50.194;7.690;2022-12-11T11:39:56;43.07;;;14.73;;
18449;SDS011;9354;50.194;7.690;2022-12-11T11:42:34;43.63;;;14.70;;
18449;SDS011;9354;50.194;7.690;2022-12-11T11:45:09;37.57;;;14.93;;
18449;SDS011;9354;50.194;7.690;2022-12-11T11:47:43;38.87;;;14.77;;
18449;SDS011;9354;50.194;7.690;2022-12-11T11:50:17;36.90;;;13.27;;
18449;SDS011;9354;50.194;7.690;2022-12-11T11:52:49;38.73;;;13.97;;
18449;SDS011;9354;50.194;7.690;2022-12-11T11:55:26;36.57;;;12.87;;
18449;SDS011;9354;50.194;7.690;2022-12-11T11:58:01;39.97;;;13.47;;
18449;SDS011;9354;50.194;7.690;2022-12-11T12:00:33;33.03;;;12.67;;
18449;SDS011;9354;50.194;7.690;2022-12-11T12:03:02;34.60;;;12.60;;
18449;SDS011;9354;50.194;7.690;2022-12-11T12:05:38;34.80;;;13.90;;
18449;SDS011;9354;50.194;7.690;2022-12-11T12:08:16;35.90;;;13.17;;
18449;SDS011;9354;50.194;7.690;2022-12-11T12:10:58;34.27;;;12.57;;
18449;SDS011;9354;50.194;7.690;2022-12-11T12:13:31;33.20;;;12.10;;
18449;SDS011;9354;50.194;7.690;2022-12-11T12:16:07;36.47;;;13.10;;
18449;SDS011;9354;50.194;7.690;2022-12-11T12:18:46;33.27;;;12.33;;
18449;SDS011;9354;50.194;7.690;2022-12-11T12:21:23;33.47;;;11.87;;
18449;SDS011;9354;50.194;7.690;2022-12-11T12:24:01;36.27;;;11.67;;
18449;SDS011;9354;50.194;7.690;2022-12-11T12:26:40;32.73;;;12.27;;
18449;SDS011;9354;50.194;7.690;2022-12-11T12:29:15;31.73;;;12.27;;
18449;SDS011;9354;50.194;7.690;2022-12-11T12:31:58;32.57;;;12.33;;
18449;SDS011;9354;50.194;7.690;2022-12-11T12:34:38;31.30;;;11.23;;
18449;SDS011;9354;50.194;7.690;2022-12-11T12:37:20;36.37;;;12.73;;
18449;SDS011;9354;50.194;7.690;2022-12-11T12:40:00;34.83;;;11.87;;
18449;SDS011;9354;50.194;7.690;2022-12-11T12:42:43;29.17;;;11.73;;
18449;SDS011;9354;50.194;7.690;2022-12-11T12:45:23;26.90;;;10.37;;
18449;SDS011;9354;50.194;7.690;2022-12-11T12:47:54;29.37;;;10.93;;
18449;SDS011;9354;50.194;7.690;2022-12-11T12:50:24;28.63;;;11.33;;
18449;SDS011;9354;50.194;7.690;2022-12-11T12:52:54;29.13;;;12.43;;
18449;SDS011;9354;50.194;7.690;2022-12-11T12:55:24;25.73;;;10.83;;
18449;SDS011;9354;50.194;7.690;2022-12-11T12:57:55;31.20;;;11.10;;
18449;SDS011;9354;50.194;7.690;2022-12-11T13:00:29;30.80;;;11.23;;
18449;SDS011;9354;50.194;7.690;2022-12-11T13:03:00;28.70;;;10.90;;
18449;SDS011;9354;50.194;7.690;2022-12-11T13:05:39;28.43;;;10.60;;
18449;SDS011;9354;50.194;7.690;2022-12-11T13:08:09;29.60;;;12.00;;
18449;SDS011;9354;50.194;7.690;2022-12-11T13:10:39;32.03;;;10.90;;
18449;SDS011;9354;50.194;7.690;2022-12-11T13:16:20;28.50;;;10.20;;
18449;SDS011;9354;50.194;7.690;2022-12-11T13:18:51;25.30;;;10.00;;
18449;SDS011;9354;50.194;7.690;2022-12-11T13:21:26;26.53;;;10.80;;
18449;SDS011;9354;50.194;7.690;2022-12-11T13:24:14;31.43;;;10.80;;
18449;SDS011;9354;50.194;7.690;2022-12-11T13:26:43;30.83;;;11.77;;
18449;SDS011;9354;50.194;7.690;2022-12-11T13:32:00;27.47;;;10.60;;
18449;SDS011;9354;50.194;7.690;2022-12-11T13:34:31;32.37;;;11.30;;
18449;SDS011;9354;50.194;7.690;2022-12-11T13:37:02;26.73;;;10.67;;
18449;SDS011;9354;50.194;7.690;2022-12-11T13:39:31;26.43;;;11.33;;
18449;SDS011;9354;50.194;7.690;2022-12-11T13:42:01;33.83;;;11.97;;
18449;SDS011;9354;50.194;7.690;2022-12-11T13:44:33;28.67;;;11.50;;
18449;SDS011;9354;50.194;7.690;2022-12-11T13:47:05;28.93;;;11.07;;
18449;SDS011;9354;50.194;7.690;2022-12-11T13:49:40;31.07;;;12.13;;
18449;SDS011;9354;50.194;7.690;2022-12-11T13:52:14;31.57;;;11.53;;
18449;SDS011;9354;50.194;7.690;2022-12-11T13:54:46;27.10;;;11.37;;
18449;SDS011;9354;50.194;7.690;2022-12-11T13:57:15;29.13;;;11.30;;
18449;SDS011;9354;50.194;7.690;2022-12-11T13:59:47;30.67;;;11.67;;
18449;SDS011;9354;50.194;7.690;2022-12-11T14:02:18;32.13;;;11.30;;
18449;SDS011;9354;50.194;7.690;2022-12-11T14:04:50;35.93;;;11.63;;
18449;SDS011;9354;50.194;7.690;2022-12-11T14:07:22;29.73;;;10.60;;
18449;SDS011;9354;50.194;7.690;2022-12-11T14:09:53;30.13;;;10.87;;
18449;SDS011;9354;50.194;7.690;2022-12-11T14:12:25;27.57;;;10.97;;
18449;SDS011;9354;50.194;7.690;2022-12-11T14:14:55;31.90;;;11.33;;
18449;SDS011;9354;50.194;7.690;2022-12-11T14:17:27;31.17;;;11.23;;
18449;SDS011;9354;50.194;7.690;2022-12-11T14:19:57;27.97;;;12.10;;
18449;SDS011;9354;50.194;7.690;2022-12-11T14:22:27;30.57;;;10.83;;
18449;SDS011;9354;50.194;7.690;2022-12-11T14:24:56;26.87;;;11.10;;
18449;SDS011;9354;50.194;7.690;2022-12-11T14:27:27;32.97;;;11.70;;
18449;SDS011;9354;50.194;7.690;2022-12-11T14:29:56;31.47;;;11.43;;
18449;SDS011;9354;50.194;7.690;2022-12-11T14:32:26;29.40;;;10.67;;
18449;SDS011;9354;50.194;7.690;2022-12-11T14:34:58;30.97;;;11.27;;
18449;SDS011;9354;50.194;7.690;2022-12-11T14:37:27;29.27;;;11.00;;
18449;SDS011;9354;50.194;7.690;2022-12-11T14:39:56;28.77;;;11.17;;
18449;SDS011;9354;50.194;7.690;2022-12-11T14:42:28;28.60;;;11.13;;
18449;SDS011;9354;50.194;7.690;2022-12-11T14:45:01;26.23;;;10.83;;
18449;SDS011;9354;50.194;7.690;2022-12-11T14:47:33;36.67;;;11.70;;
18449;SDS011;9354;50.194;7.690;2022-12-11T14:50:07;31.07;;;12.23;;
18449;SDS011;9354;50.194;7.690;2022-12-11T14:52:43;31.50;;;12.67;;
18449;SDS011;9354;50.194;7.690;2022-12-11T14:55:14;29.70;;;10.80;;
18449;SDS011;9354;50.194;7.690;2022-12-11T14:57:44;29.80;;;10.80;;
18449;SDS011;9354;50.194;7.690;2022-12-11T15:00:23;28.63;;;11.00;;
18449;SDS011;9354;50.194;7.690;2022-12-11T15:02:56;30.57;;;11.40;;
18449;SDS011;9354;50.194;7.690;2022-12-11T15:05:25;26.80;;;10.63;;